createdAt,value
2022-07-29T00:01:19.185Z,11.30
2022-07-29T00:03:46.814Z,13.20
2022-07-29T00:06:13.850Z,9.60
2022-07-29T00:08:40.761Z,10.90
2022-07-29T00:11:07.640Z,11.90
2022-07-29T00:13:34.917Z,15.30
2022-07-29T00:16:04.540Z,9.90
2022-07-29T00:18:32.953Z,11.40
2022-07-29T00:21:00.336Z,10.20
2022-07-29T00:23:27.203Z,9.30
2022-07-29T00:25:54.075Z,9.00
2022-07-29T00:28:20.993Z,11.30
2022-07-29T00:30:47.906Z,8.40
2022-07-29T00:33:14.828Z,7.30
2022-07-29T00:35:44.938Z,7.70
2022-07-29T00:38:18.312Z,6.10
2022-07-29T00:40:45.810Z,5.80
2022-07-29T00:43:14.810Z,6.50
2022-07-29T00:45:43.031Z,10.30
2022-07-29T00:48:10.649Z,6.30
2022-07-29T00:50:38.338Z,7.70
2022-07-29T00:53:07.902Z,9.60
2022-07-29T00:55:35.557Z,9.30
2022-07-29T00:58:02.718Z,8.70
2022-07-29T01:00:30.541Z,7.70
2022-07-29T01:02:57.549Z,7.70
2022-07-29T01:05:50.788Z,5.70
2022-07-29T01:08:16.432Z,4.80
2022-07-29T01:10:45.622Z,3.40
2022-07-29T01:13:14.844Z,5.10
2022-07-29T01:15:48.833Z,8.80
2022-07-29T01:18:23.764Z,8.70
2022-07-29T01:21:14.306Z,4.40
2022-07-29T01:24:01.093Z,5.50
2022-07-29T01:26:30.733Z,3.90
2022-07-29T01:29:18.718Z,4.20
2022-07-29T01:31:59.116Z,7.00
2022-07-29T01:34:40.725Z,3.80
2022-07-29T01:37:19.748Z,6.40
2022-07-29T01:39:50.513Z,3.40
2022-07-29T01:42:36.737Z,3.60
2022-07-29T01:45:09.652Z,6.50
2022-07-29T01:47:44.574Z,4.00
2022-07-29T01:50:14.102Z,4.00
2022-07-29T01:52:47.787Z,4.40
2022-07-29T01:55:16.659Z,2.70
2022-07-29T01:57:45.791Z,3.40
2022-07-29T02:00:14.034Z,3.30
2022-07-29T02:02:45.374Z,3.60
2022-07-29T02:05:15.612Z,8.10
2022-07-29T02:07:44.434Z,5.00
2022-07-29T02:10:13.781Z,3.00
2022-07-29T02:12:43.607Z,7.50
2022-07-29T02:15:18.222Z,4.50
2022-07-29T02:17:51.172Z,5.00
2022-07-29T02:20:18.152Z,4.60
2022-07-29T02:22:47.660Z,3.80
2022-07-29T02:25:16.917Z,3.70
2022-07-29T02:27:45.567Z,4.00
2022-07-29T02:30:13.955Z,2.40
2022-07-29T02:32:43.342Z,2.70
2022-07-29T02:35:13.458Z,3.30
2022-07-29T02:37:41.191Z,3.50
2022-07-29T02:40:12.183Z,3.70
2022-07-29T02:42:42.293Z,5.50
2022-07-29T02:45:10.698Z,3.60
2022-07-29T02:47:44.859Z,2.30
2022-07-29T02:50:19.143Z,3.30
2022-07-29T02:52:53.610Z,4.80
2022-07-29T02:55:42.559Z,3.70
2022-07-29T02:58:14.660Z,2.60
2022-07-29T03:00:42.330Z,3.20
2022-07-29T03:03:14.251Z,7.00
2022-07-29T03:05:42.033Z,4.70
2022-07-29T03:08:12.354Z,6.70
2022-07-29T03:10:43.990Z,4.80
2022-07-29T03:13:11.639Z,2.70
2022-07-29T03:15:39.238Z,3.40
2022-07-29T03:18:07.758Z,8.30
2022-07-29T03:20:34.966Z,4.40
2022-07-29T03:23:01.842Z,3.60
2022-07-29T03:25:28.714Z,5.80
2022-07-29T03:27:55.595Z,4.30
2022-07-29T03:30:22.601Z,5.20
2022-07-29T03:32:52.264Z,2.50
2022-07-29T03:35:35.333Z,4.50
2022-07-29T03:38:02.396Z,7.80
2022-07-29T03:40:39.354Z,5.00
2022-07-29T03:43:09.693Z,3.10
2022-07-29T03:45:37.435Z,3.20
2022-07-29T03:48:09.653Z,2.90
2022-07-29T03:50:37.723Z,4.30
2022-07-29T03:53:05.134Z,2.40
2022-07-29T03:55:38.754Z,3.80
2022-07-29T03:58:07.748Z,4.30
2022-07-29T04:00:36.100Z,5.30
2022-07-29T04:03:05.173Z,3.80
2022-07-29T04:05:37.946Z,3.80
2022-07-29T04:08:05.049Z,8.00
2022-07-29T04:10:34.192Z,5.30
2022-07-29T04:13:02.773Z,3.60
2022-07-29T04:15:31.643Z,2.60
2022-07-29T04:17:59.930Z,4.00
2022-07-29T04:20:26.922Z,3.20
2022-07-29T04:22:53.851Z,7.70
2022-07-29T04:25:21.041Z,3.60
2022-07-29T04:28:04.268Z,3.70
2022-07-29T04:30:32.546Z,5.20
2022-07-29T04:33:01.907Z,5.80
2022-07-29T04:35:30.493Z,4.60
2022-07-29T04:38:06.857Z,4.70
2022-07-29T04:40:34.885Z,4.70
2022-07-29T04:43:05.728Z,5.50
2022-07-29T04:45:33.011Z,3.00
2022-07-29T04:47:59.866Z,3.10
2022-07-29T04:50:26.671Z,6.50
2022-07-29T04:52:54.285Z,3.20
2022-07-29T04:55:21.164Z,5.00
2022-07-29T04:57:47.936Z,4.60
2022-07-29T05:00:16.010Z,4.00
2022-07-29T05:02:42.882Z,4.60
2022-07-29T05:05:10.010Z,4.50
2022-07-29T05:07:36.922Z,3.60
2022-07-29T05:10:04.737Z,2.50
2022-07-29T05:12:31.546Z,3.70
2022-07-29T05:14:58.386Z,3.10
2022-07-29T05:17:25.183Z,3.00
2022-07-29T05:19:52.497Z,6.90
2022-07-29T05:22:20.403Z,4.30
2022-07-29T05:24:47.750Z,4.80
2022-07-29T05:27:14.847Z,5.30
2022-07-29T05:29:43.737Z,5.10
2022-07-29T05:32:12.954Z,5.90
2022-07-29T05:34:50.153Z,4.10
2022-07-29T05:37:20.221Z,4.40
2022-07-29T05:39:50.563Z,3.30
2022-07-29T05:42:24.525Z,5.30
2022-07-29T05:44:51.869Z,4.00
2022-07-29T05:47:18.808Z,5.00
2022-07-29T05:49:46.374Z,5.00
2022-07-29T05:52:14.371Z,3.30
2022-07-29T05:54:41.739Z,5.10
2022-07-29T05:57:09.103Z,4.00
2022-07-29T05:59:38.158Z,2.90
2022-07-29T06:02:07.131Z,6.10
2022-07-29T06:04:34.774Z,4.30
2022-07-29T06:07:02.907Z,6.90
2022-07-29T06:09:29.980Z,3.40
2022-07-29T06:11:57.260Z,8.00
2022-07-29T06:14:24.053Z,4.90
2022-07-29T06:16:51.003Z,6.90
2022-07-29T06:19:17.916Z,3.60
2022-07-29T06:21:45.454Z,2.70
2022-07-29T06:24:13.997Z,5.30
2022-07-29T06:26:42.046Z,2.90
2022-07-29T06:29:11.694Z,4.50
2022-07-29T06:31:39.211Z,6.00
2022-07-29T06:34:06.147Z,4.40
2022-07-29T06:36:36.749Z,3.10
2022-07-29T06:39:07.329Z,2.50
2022-07-29T06:41:35.473Z,3.10
2022-07-29T06:44:07.256Z,3.80
2022-07-29T06:46:34.102Z,3.30
2022-07-29T06:49:02.788Z,4.40
2022-07-29T06:51:30.039Z,4.60
2022-07-29T06:54:02.161Z,3.70
2022-07-29T06:58:58.397Z,2.90
2022-07-29T07:01:26.346Z,3.00
2022-07-29T07:03:53.246Z,4.20
2022-07-29T07:06:20.048Z,4.20
2022-07-29T07:08:46.935Z,4.20
2022-07-29T07:11:13.764Z,3.90
2022-07-29T07:13:40.608Z,6.70
2022-07-29T07:16:07.390Z,4.40
2022-07-29T07:18:34.246Z,3.00
2022-07-29T07:21:01.233Z,4.40
2022-07-29T07:23:28.110Z,4.00
2022-07-29T07:25:54.979Z,2.60
2022-07-29T07:28:24.475Z,6.40
2022-07-29T07:30:53.052Z,4.50
2022-07-29T07:33:20.648Z,6.20
2022-07-29T07:35:47.994Z,2.20
2022-07-29T07:38:15.011Z,4.50
2022-07-29T07:40:42.531Z,5.10
2022-07-29T07:43:09.445Z,3.70
2022-07-29T07:45:38.568Z,4.80
2022-07-29T07:48:06.087Z,2.60
2022-07-29T07:50:33.001Z,4.90
2022-07-29T07:53:00.661Z,5.30
2022-07-29T07:55:27.737Z,2.90
2022-07-29T07:57:55.772Z,3.00
2022-07-29T08:00:23.800Z,2.80
2022-07-29T08:02:51.828Z,5.00
2022-07-29T08:05:19.400Z,2.70
2022-07-29T08:07:47.619Z,3.60
2022-07-29T08:10:36.628Z,4.30
2022-07-29T08:13:06.260Z,3.60
2022-07-29T08:15:34.040Z,3.30
2022-07-29T08:18:05.230Z,4.10
2022-07-29T08:20:36.864Z,2.10
2022-07-29T08:23:05.751Z,6.50
2022-07-29T08:25:34.704Z,4.50
2022-07-29T08:28:05.985Z,6.00
2022-07-29T08:30:33.522Z,2.60
2022-07-29T08:33:00.770Z,1.70
2022-07-29T08:35:31.018Z,5.00
2022-07-29T08:38:00.244Z,2.50
2022-07-29T08:40:32.443Z,2.00
2022-07-29T08:43:06.457Z,5.70
2022-07-29T08:45:48.165Z,3.70
2022-07-29T08:48:19.998Z,2.50
2022-07-29T08:50:49.159Z,4.50
2022-07-29T08:53:17.654Z,3.40
2022-07-29T08:55:46.781Z,3.80
2022-07-29T08:58:15.703Z,3.70
2022-07-29T09:00:46.069Z,2.90
2022-07-29T09:03:16.990Z,4.00
2022-07-29T09:05:48.081Z,2.80
2022-07-29T09:08:16.877Z,3.80
2022-07-29T09:10:44.876Z,3.00
2022-07-29T09:13:11.753Z,5.10
2022-07-29T09:15:38.575Z,3.50
2022-07-29T09:18:05.398Z,3.70
2022-07-29T09:20:48.044Z,3.40
2022-07-29T09:23:24.135Z,2.90
2022-07-29T09:25:51.737Z,4.20
2022-07-29T09:28:19.067Z,5.30
2022-07-29T09:30:54.830Z,3.40
2022-07-29T09:33:23.422Z,2.80
2022-07-29T09:36:07.126Z,2.90
2022-07-29T09:38:36.266Z,5.60
2022-07-29T09:41:06.919Z,3.00
2022-07-29T09:43:35.079Z,5.20
2022-07-29T09:46:17.734Z,4.60
2022-07-29T09:48:45.301Z,2.70
2022-07-29T09:51:24.141Z,3.00
2022-07-29T09:53:55.484Z,2.90
2022-07-29T09:56:40.610Z,4.30
2022-07-29T09:59:09.187Z,5.40
2022-07-29T10:01:37.051Z,5.60
2022-07-29T10:04:04.155Z,4.20
2022-07-29T10:06:30.988Z,3.70
2022-07-29T10:09:13.313Z,2.40
2022-07-29T10:11:49.642Z,1.90
2022-07-29T10:14:17.322Z,4.30
2022-07-29T10:16:44.464Z,3.90
2022-07-29T10:19:11.770Z,2.10
2022-07-29T10:21:40.845Z,5.60
2022-07-29T10:24:15.050Z,2.80
2022-07-29T10:26:43.259Z,3.70
2022-07-29T10:29:10.615Z,3.70
2022-07-29T10:31:56.352Z,6.00
2022-07-29T10:34:46.314Z,4.40
2022-07-29T10:37:20.653Z,3.70
2022-07-29T10:39:58.864Z,4.30
2022-07-29T10:42:34.359Z,5.70
2022-07-29T10:45:04.622Z,2.80
2022-07-29T10:47:31.912Z,2.60
2022-07-29T10:50:01.865Z,2.70
2022-07-29T10:52:55.822Z,4.20
2022-07-29T10:55:43.869Z,4.30
2022-07-29T10:58:13.624Z,3.70
2022-07-29T11:00:40.577Z,3.10
2022-07-29T11:03:10.511Z,2.90
2022-07-29T11:05:55.738Z,2.70
2022-07-29T11:08:26.377Z,3.40
2022-07-29T11:11:22.443Z,3.70
2022-07-29T11:13:57.167Z,3.10
2022-07-29T11:16:25.302Z,3.60
2022-07-29T11:19:16.440Z,5.60
2022-07-29T11:21:55.310Z,2.60
2022-07-29T11:24:32.122Z,3.60
2022-07-29T11:27:18.249Z,2.80
2022-07-29T11:30:03.193Z,2.50
2022-07-29T11:32:40.158Z,6.50
2022-07-29T11:35:38.432Z,8.00
2022-07-29T11:38:23.452Z,7.20
2022-07-29T11:41:23.673Z,3.60
2022-07-29T11:43:53.485Z,3.50
2022-07-29T11:46:53.886Z,2.80
2022-07-29T11:49:32.312Z,2.70
2022-07-29T11:52:03.257Z,2.20
2022-07-29T11:54:38.878Z,3.30
2022-07-29T12:00:12.637Z,2.90
2022-07-29T12:05:22.282Z,2.40
2022-07-29T12:08:08.227Z,1.90
2022-07-29T12:10:42.212Z,3.90
2022-07-29T12:13:10.245Z,5.30
2022-07-29T12:15:47.015Z,4.60
2022-07-29T12:18:16.141Z,2.30
2022-07-29T12:20:46.043Z,4.20
2022-07-29T12:23:13.549Z,2.60
2022-07-29T12:25:49.628Z,4.10
2022-07-29T12:28:26.628Z,5.30
2022-07-29T12:30:54.031Z,5.10
2022-07-29T12:33:23.713Z,2.80
2022-07-29T12:36:17.609Z,4.40
2022-07-29T12:38:45.771Z,3.10
2022-07-29T12:41:13.817Z,2.90
2022-07-29T12:43:53.844Z,3.80
2022-07-29T12:46:21.151Z,3.70
2022-07-29T12:48:56.318Z,3.60
2022-07-29T12:51:40.081Z,3.20
2022-07-29T12:54:12.510Z,6.60
2022-07-29T12:56:44.321Z,4.60
2022-07-29T12:59:14.116Z,4.00
2022-07-29T13:01:40.988Z,3.20
2022-07-29T13:04:08.076Z,7.20
2022-07-29T13:06:36.622Z,2.50
2022-07-29T13:09:05.644Z,3.80
2022-07-29T13:11:36.595Z,8.10
2022-07-29T13:14:06.808Z,5.50
2022-07-29T13:16:34.296Z,3.30
2022-07-29T13:19:11.740Z,2.90
2022-07-29T13:21:40.237Z,2.90
2022-07-29T13:24:08.587Z,2.30
2022-07-29T13:26:35.716Z,5.00
2022-07-29T13:29:02.525Z,4.50
2022-07-29T13:31:29.436Z,4.30
2022-07-29T13:33:57.405Z,5.40
2022-07-29T13:36:24.440Z,5.70
2022-07-29T13:38:51.325Z,4.60
2022-07-29T13:41:18.180Z,4.30
2022-07-29T13:43:44.997Z,3.70
2022-07-29T13:46:11.818Z,4.60
2022-07-29T13:48:38.706Z,3.30
2022-07-29T13:51:05.582Z,2.80
2022-07-29T13:53:32.473Z,4.50
2022-07-29T13:55:59.552Z,3.30
2022-07-29T13:58:26.604Z,6.40
2022-07-29T14:00:53.512Z,4.70
2022-07-29T14:03:23.641Z,2.80
2022-07-29T14:05:50.523Z,2.20
2022-07-29T14:08:17.333Z,2.30
2022-07-29T14:10:44.251Z,5.00
2022-07-29T14:13:25.148Z,4.40
2022-07-29T14:15:54.032Z,6.70
2022-07-29T14:18:20.908Z,2.80
2022-07-29T14:20:47.827Z,4.60
2022-07-29T14:23:16.267Z,3.80
2022-07-29T14:25:44.564Z,2.60
2022-07-29T14:28:12.811Z,7.20
2022-07-29T14:30:41.682Z,4.00
2022-07-29T14:33:09.174Z,8.80
2022-07-29T14:35:35.964Z,8.30
2022-07-29T14:38:02.750Z,4.90
2022-07-29T14:40:29.584Z,5.30
2022-07-29T14:42:56.599Z,4.40
2022-07-29T14:45:24.051Z,3.80
2022-07-29T14:47:53.417Z,5.90
2022-07-29T14:50:31.626Z,5.00
2022-07-29T14:53:00.218Z,4.60
2022-07-29T14:55:27.704Z,5.70
2022-07-29T14:58:00.722Z,3.70
2022-07-29T15:00:34.666Z,9.40
2022-07-29T15:03:02.878Z,6.90
2022-07-29T15:05:31.476Z,4.70
2022-07-29T15:07:59.922Z,4.20
2022-07-29T15:10:42.346Z,4.00
2022-07-29T15:13:09.650Z,5.50
2022-07-29T15:15:36.606Z,4.90
2022-07-29T15:18:03.983Z,4.20
2022-07-29T15:20:30.964Z,4.20
2022-07-29T15:22:57.799Z,2.70
2022-07-29T15:25:25.673Z,4.10
2022-07-29T15:27:59.189Z,3.60
2022-07-29T15:30:33.371Z,4.70
2022-07-29T15:33:02.682Z,7.10
2022-07-29T15:35:29.741Z,4.60
2022-07-29T15:37:56.554Z,7.70
2022-07-29T15:40:23.406Z,5.00
2022-07-29T15:42:50.606Z,7.00
2022-07-29T15:45:17.425Z,8.10
2022-07-29T15:47:44.662Z,8.50
2022-07-29T15:50:15.960Z,5.10
2022-07-29T15:52:43.766Z,3.80
2022-07-29T15:55:10.787Z,3.20
2022-07-29T15:57:41.020Z,5.50
2022-07-29T16:00:08.747Z,7.40
2022-07-29T16:02:35.920Z,3.10
2022-07-29T16:05:02.708Z,8.80
2022-07-29T16:07:31.381Z,4.20
2022-07-29T16:09:59.434Z,6.50
2022-07-29T16:12:26.466Z,6.40
2022-07-29T16:14:53.380Z,11.80
2022-07-29T16:17:20.354Z,14.60
2022-07-29T16:19:47.472Z,29.30
2022-07-29T16:22:14.609Z,11.80
2022-07-29T16:24:41.806Z,7.80
2022-07-29T16:27:09.320Z,5.20
2022-07-29T16:29:37.426Z,11.40
2022-07-29T16:32:06.332Z,12.10
2022-07-29T16:34:33.726Z,12.60
2022-07-29T16:37:00.942Z,7.00
2022-07-29T16:39:27.979Z,7.30
2022-07-29T16:41:58.312Z,7.80
2022-07-29T16:44:27.513Z,5.00
2022-07-29T16:46:56.081Z,5.40
2022-07-29T16:49:25.962Z,7.90
2022-07-29T16:51:53.931Z,9.10
2022-07-29T16:54:21.356Z,5.80
2022-07-29T16:56:48.191Z,6.80
2022-07-29T16:59:15.034Z,6.70
2022-07-29T17:01:41.934Z,6.30
2022-07-29T17:04:09.351Z,7.10
2022-07-29T17:06:39.074Z,7.40
2022-07-29T17:09:07.739Z,7.80
2022-07-29T17:11:53.593Z,7.00
2022-07-29T17:14:25.625Z,9.20
2022-07-29T17:17:00.574Z,8.70
2022-07-29T17:19:31.918Z,10.40
2022-07-29T17:22:08.958Z,12.50
2022-07-29T17:24:38.923Z,6.30
2022-07-29T17:27:07.146Z,7.40
2022-07-29T17:29:35.419Z,5.10
2022-07-29T17:32:02.304Z,4.50
2022-07-29T17:34:29.197Z,7.90
2022-07-29T17:36:56.724Z,9.50
2022-07-29T17:39:24.284Z,6.10
2022-07-29T17:41:51.106Z,8.70
2022-07-29T17:44:18.459Z,8.10
2022-07-29T17:46:45.419Z,4.80
2022-07-29T17:49:12.415Z,6.50
2022-07-29T17:51:39.328Z,6.40
2022-07-29T17:54:06.174Z,5.90
2022-07-29T17:56:33.122Z,7.00
2022-07-29T17:59:01.632Z,5.70
2022-07-29T18:01:28.898Z,6.60
2022-07-29T18:03:59.787Z,9.50
2022-07-29T18:06:27.159Z,5.50
2022-07-29T18:08:55.348Z,5.20
2022-07-29T18:11:23.009Z,5.40
2022-07-29T18:13:49.814Z,5.90
2022-07-29T18:16:16.722Z,8.50
2022-07-29T18:18:45.056Z,5.00
2022-07-29T18:21:12.459Z,7.40
2022-07-29T18:23:39.368Z,7.80
2022-07-29T18:26:06.215Z,10.70
2022-07-29T18:28:33.308Z,10.90
2022-07-29T18:31:01.440Z,9.40
2022-07-29T18:33:28.436Z,8.00
2022-07-29T18:36:10.480Z,9.10
2022-07-29T18:38:39.009Z,16.00
2022-07-29T18:41:05.797Z,16.20
2022-07-29T18:43:32.659Z,23.10
2022-07-29T18:45:59.486Z,17.40
2022-07-29T18:48:26.307Z,19.60
2022-07-29T18:50:53.390Z,26.00
2022-07-29T18:53:20.217Z,30.90
2022-07-29T18:55:47.050Z,30.30
2022-07-29T18:58:13.925Z,26.40
2022-07-29T19:00:41.057Z,28.20
2022-07-29T19:03:08.988Z,26.90
2022-07-29T19:05:35.913Z,25.70
2022-07-29T19:08:02.911Z,29.70
2022-07-29T19:10:30.573Z,25.10
2022-07-29T19:12:58.009Z,20.40
2022-07-29T19:15:25.257Z,17.30
2022-07-29T19:17:52.111Z,15.30
2022-07-29T19:20:18.967Z,13.10
2022-07-29T19:22:46.194Z,15.00
2022-07-29T19:25:13.530Z,10.90
2022-07-29T19:27:42.057Z,10.90
2022-07-29T19:30:09.875Z,9.50
2022-07-29T19:32:37.419Z,11.00
2022-07-29T19:35:21.721Z,13.20
2022-07-29T19:40:16.365Z,10.60
2022-07-29T19:42:44.306Z,12.80
2022-07-29T19:45:11.853Z,14.80
2022-07-29T19:47:38.774Z,7.70
2022-07-29T19:50:06.916Z,7.80
2022-07-29T19:52:33.779Z,9.90
2022-07-29T19:55:06.815Z,9.90
2022-07-29T19:57:40.859Z,9.40
2022-07-29T20:00:11.474Z,11.40
2022-07-29T20:02:40.397Z,7.80
2022-07-29T20:05:08.781Z,9.20
2022-07-29T20:07:36.726Z,8.80
2022-07-29T20:10:05.349Z,10.40
2022-07-29T20:12:32.647Z,6.90
2022-07-29T20:14:59.858Z,8.10
2022-07-29T20:17:27.262Z,8.60
2022-07-29T20:19:54.297Z,8.80
2022-07-29T20:22:22.789Z,5.40
2022-07-29T20:24:49.607Z,4.60
2022-07-29T20:27:16.477Z,5.80
2022-07-29T20:29:43.353Z,5.80
2022-07-29T20:32:12.032Z,4.90
2022-07-29T20:34:41.304Z,6.00
2022-07-29T20:37:13.463Z,5.40
2022-07-29T20:39:42.973Z,7.00
2022-07-29T20:42:09.882Z,7.00
2022-07-29T20:44:36.959Z,7.10
2022-07-29T20:47:03.944Z,7.60
2022-07-29T20:49:31.013Z,5.60
2022-07-29T20:51:58.098Z,8.70
2022-07-29T20:54:24.975Z,5.80
2022-07-29T20:56:51.833Z,5.30
2022-07-29T20:59:18.917Z,7.10
2022-07-29T21:01:46.323Z,6.00
2022-07-29T21:04:13.274Z,6.80
2022-07-29T21:06:40.059Z,8.90
2022-07-29T21:09:06.928Z,6.50
2022-07-29T21:11:44.023Z,8.60
2022-07-29T21:14:28.696Z,7.20
2022-07-29T21:16:55.863Z,6.00
2022-07-29T21:19:22.625Z,6.80
2022-07-29T21:21:49.963Z,7.60
2022-07-29T21:24:16.795Z,4.90
2022-07-29T21:26:47.463Z,6.00
2022-07-29T21:31:45.406Z,7.30
2022-07-29T21:34:12.248Z,7.60
2022-07-29T21:36:54.224Z,6.80
2022-07-29T21:39:21.059Z,6.30
2022-07-29T21:41:48.105Z,7.60
2022-07-29T21:44:14.907Z,7.30
2022-07-29T21:46:41.757Z,5.60
2022-07-29T21:49:08.670Z,5.40
2022-07-29T21:51:35.507Z,4.00
2022-07-29T21:54:03.802Z,4.70
2022-07-29T21:56:31.425Z,4.60
2022-07-29T21:58:58.483Z,5.20
2022-07-29T22:01:25.466Z,4.70
2022-07-29T22:03:52.543Z,4.30
2022-07-29T22:06:19.786Z,7.10
2022-07-29T22:08:48.066Z,6.80
2022-07-29T22:11:15.005Z,4.10
2022-07-29T22:13:42.027Z,7.80
2022-07-29T22:16:10.359Z,4.30
2022-07-29T22:18:37.185Z,4.20
2022-07-29T22:21:04.589Z,3.40
2022-07-29T22:23:31.553Z,3.00
2022-07-29T22:25:58.422Z,4.70
2022-07-29T22:28:25.251Z,3.60
2022-07-29T22:30:52.135Z,3.70
2022-07-29T22:33:18.950Z,3.60
2022-07-29T22:35:48.486Z,2.90
2022-07-29T22:38:17.540Z,3.50
2022-07-29T22:40:44.361Z,4.30
2022-07-29T22:43:11.192Z,6.00
2022-07-29T22:45:38.331Z,4.90
2022-07-29T22:48:06.092Z,3.40
2022-07-29T22:50:33.093Z,4.60
2022-07-29T22:52:59.929Z,3.50
2022-07-29T22:55:26.723Z,3.20
2022-07-29T22:57:53.512Z,3.90
2022-07-29T23:00:20.358Z,4.30
2022-07-29T23:02:47.697Z,6.70
2022-07-29T23:05:15.932Z,4.20
2022-07-29T23:07:43.168Z,3.20
2022-07-29T23:10:10.520Z,3.40
2022-07-29T23:12:37.511Z,5.10
2022-07-29T23:15:06.361Z,2.30
2022-07-29T23:17:36.178Z,2.80
2022-07-29T23:20:07.724Z,4.10
2022-07-29T23:22:36.031Z,3.90
2022-07-29T23:25:05.074Z,3.90
2022-07-29T23:27:32.333Z,2.70
2022-07-29T23:29:59.202Z,3.20
2022-07-29T23:32:25.966Z,4.30
2022-07-29T23:34:52.771Z,3.70
2022-07-29T23:37:19.635Z,2.70
2022-07-29T23:39:46.457Z,2.90
2022-07-29T23:42:13.296Z,3.40
2022-07-29T23:44:40.114Z,3.90
2022-07-29T23:47:06.987Z,4.20
2022-07-29T23:49:33.868Z,3.30
2022-07-29T23:52:00.678Z,4.60
2022-07-29T23:54:27.937Z,3.50
2022-07-29T23:56:56.866Z,4.80
2022-07-29T23:59:24.622Z,5.20
